Aviation Digital Data Service (ADDS)

Output produced by METARs form (1648 UTC 16 June 2019)
found at http://www.aviationweather.gov/metar/data/
 
Forecast for: VVNB (HANOI/NOIBAI INT, VN)
Text: TAF VVNB 161100Z 1612/1712 12008KT 8000 FEW025
Forecast period: 1200 UTC 16 June 2019 to 1200 UTC 17 June 2019
Forecast type: FROM: standard forecast or significant change
Winds: from the ESE (120 degrees) at 9 MPH (8 knots; 4.1 m/s)
Visibility: 5 miles (8 km)
Ceiling: at least 12,000 feet AGL
Clouds: few clouds at 2500 feet AGL
Weather: no significant weather forecast for this period
Text: TEMPO 1612/1614 5000 TSRA SCT015 FEW027CB
Forecast period: 1200 to 1400 UTC 16 June 2019
Forecast type: TEMPORARY: The following changes expected for less than half the time period
Visibility: 3 miles (5 km)
Ceiling: at least 12,000 feet AGL
Clouds: scattered clouds at 1500 feet AGL
few clouds at 2700 feet AGL
Weather: TSRA  (rain associated with thunderstorm(s))